createdAt,value
2017-11-26T00:00:11.746Z,6.90
2017-11-26T00:02:39.143Z,6.60
2017-11-26T00:05:06.568Z,7.67
2017-11-26T00:07:33.964Z,7.93
2017-11-26T00:10:01.426Z,6.97
2017-11-26T00:12:28.787Z,7.00
2017-11-26T00:14:56.205Z,8.17
2017-11-26T00:17:23.599Z,8.03
2017-11-26T00:19:51.035Z,9.10
2017-11-26T00:22:18.414Z,8.10
2017-11-26T00:24:45.794Z,7.00
2017-11-26T00:27:13.221Z,6.47
2017-11-26T00:29:40.615Z,6.40
2017-11-26T00:32:08.032Z,5.30
2017-11-26T00:34:35.407Z,5.40
2017-11-26T00:37:02.851Z,5.43
2017-11-26T00:39:30.286Z,5.53
2017-11-26T00:41:57.861Z,4.93
2017-11-26T00:44:25.250Z,4.60
2017-11-26T00:46:52.680Z,4.93
2017-11-26T00:49:20.091Z,4.77
2017-11-26T00:51:47.474Z,4.83
2017-11-26T00:54:14.918Z,4.60
2017-11-26T00:56:42.293Z,5.28
2017-11-26T00:59:09.732Z,5.80
2017-11-26T01:01:37.124Z,5.33
2017-11-26T01:04:04.550Z,5.47
2017-11-26T01:06:31.948Z,5.73
2017-11-26T01:08:59.366Z,6.00
2017-11-26T01:11:26.763Z,6.37
2017-11-26T01:13:54.160Z,5.93
2017-11-26T01:16:21.575Z,5.50
2017-11-26T01:18:48.960Z,5.23
2017-11-26T01:21:16.347Z,5.90
2017-11-26T01:23:43.733Z,5.77
2017-11-26T01:26:11.155Z,6.07
2017-11-26T01:28:38.553Z,6.33
2017-11-26T01:31:06.003Z,6.53
2017-11-26T01:33:33.419Z,6.30
2017-11-26T01:36:00.850Z,7.00
2017-11-26T01:38:28.243Z,6.40
2017-11-26T01:40:55.660Z,6.23
2017-11-26T01:43:23.063Z,6.40
2017-11-26T01:45:50.442Z,7.72
2017-11-26T01:48:17.852Z,7.10
2017-11-26T01:50:45.271Z,6.77
2017-11-26T01:53:12.688Z,13.93
2017-11-26T01:55:40.113Z,13.50
2017-11-26T01:58:07.547Z,8.80
2017-11-26T02:00:34.960Z,6.93
2017-11-26T02:03:02.394Z,6.13
2017-11-26T02:05:29.786Z,7.67
2017-11-26T02:07:57.222Z,7.20
2017-11-26T02:10:24.815Z,6.43
2017-11-26T02:12:52.240Z,6.80
2017-11-26T02:15:19.630Z,6.63
2017-11-26T02:17:47.036Z,6.60
2017-11-26T02:20:14.419Z,6.90
2017-11-26T02:22:41.826Z,7.40
2017-11-26T02:25:09.201Z,6.90
2017-11-26T02:27:36.688Z,6.50
2017-11-26T02:30:04.064Z,5.70
2017-11-26T02:32:43.170Z,6.83
2017-11-26T02:38:31.381Z,6.93
2017-11-26T02:40:58.774Z,6.30
2017-11-26T02:43:26.171Z,6.10
2017-11-26T02:45:53.588Z,5.40
2017-11-26T02:48:20.992Z,5.97
2017-11-26T02:50:48.416Z,6.33
2017-11-26T02:53:15.812Z,6.50
2017-11-26T02:55:43.233Z,5.43
2017-11-26T02:58:10.616Z,5.67
2017-11-26T03:00:38.030Z,6.40
2017-11-26T03:03:05.428Z,6.00
2017-11-26T03:05:32.833Z,5.50
2017-11-26T03:08:00.224Z,4.93
2017-11-26T03:10:27.629Z,5.60
2017-11-26T03:12:55.023Z,5.70
2017-11-26T03:15:22.421Z,5.23
2017-11-26T03:17:49.811Z,5.27
2017-11-26T03:20:17.230Z,4.87
2017-11-26T03:22:44.637Z,4.70
2017-11-26T03:25:12.017Z,5.10
2017-11-26T03:27:39.427Z,5.00
2017-11-26T03:30:06.822Z,5.00
2017-11-26T03:32:34.235Z,5.40
2017-11-26T03:35:01.678Z,5.80
2017-11-26T03:37:29.304Z,4.30
2017-11-26T03:39:56.683Z,4.60
2017-11-26T03:42:24.122Z,5.10
2017-11-26T03:44:51.535Z,4.70
2017-11-26T03:47:18.972Z,4.50
2017-11-26T03:49:46.355Z,4.20
2017-11-26T03:52:13.761Z,4.70
2017-11-26T03:54:41.171Z,4.70
2017-11-26T03:57:08.573Z,4.73
2017-11-26T03:59:36.015Z,4.40
2017-11-26T04:02:03.402Z,4.80
2017-11-26T04:04:30.808Z,4.40
2017-11-26T04:06:58.189Z,4.20
2017-11-26T04:09:25.594Z,5.10
2017-11-26T04:11:53.090Z,3.93
2017-11-26T04:14:20.511Z,4.77
2017-11-26T04:16:47.917Z,4.40
2017-11-26T04:19:15.306Z,4.53
2017-11-26T04:21:42.732Z,4.50
2017-11-26T04:24:10.127Z,4.10
2017-11-26T04:26:37.583Z,4.73
2017-11-26T04:29:05.001Z,4.17
2017-11-26T04:31:32.390Z,4.33
2017-11-26T04:33:59.835Z,4.40
2017-11-26T04:36:27.246Z,4.53
2017-11-26T04:38:54.663Z,3.93
2017-11-26T04:41:22.105Z,4.60
2017-11-26T04:43:49.502Z,4.20
2017-11-26T04:46:16.882Z,4.27
2017-11-26T04:48:44.292Z,4.20
2017-11-26T04:51:11.733Z,4.17
2017-11-26T04:53:39.128Z,4.43
2017-11-26T04:56:06.519Z,4.47
2017-11-26T04:58:33.931Z,4.63
2017-11-26T05:01:01.319Z,5.07
2017-11-26T05:03:28.748Z,4.40
2017-11-26T05:05:56.142Z,4.33
2017-11-26T05:08:23.528Z,4.57
2017-11-26T05:10:50.931Z,4.17
2017-11-26T05:13:18.327Z,4.60
2017-11-26T05:15:45.747Z,5.13
2017-11-26T05:18:13.133Z,4.53
2017-11-26T05:20:40.546Z,3.73
2017-11-26T05:23:07.927Z,3.70
2017-11-26T05:25:35.333Z,4.50
2017-11-26T05:28:02.714Z,4.43
2017-11-26T05:30:30.144Z,4.30
2017-11-26T05:32:57.536Z,5.50
2017-11-26T05:35:25.901Z,4.68
2017-11-26T05:37:53.294Z,4.07
2017-11-26T05:40:20.695Z,4.40
2017-11-26T05:42:48.091Z,3.90
2017-11-26T05:45:15.511Z,5.03
2017-11-26T05:47:42.905Z,4.40
2017-11-26T05:50:10.313Z,4.20
2017-11-26T05:52:37.720Z,4.67
2017-11-26T05:55:05.137Z,4.80
2017-11-26T05:57:32.553Z,4.43
2017-11-26T05:59:59.970Z,3.87
2017-11-26T06:02:27.376Z,4.47
2017-11-26T06:04:54.759Z,3.80
2017-11-26T06:07:22.162Z,4.43
2017-11-26T06:09:49.546Z,4.70
2017-11-26T06:12:16.987Z,3.93
2017-11-26T06:14:44.381Z,4.67
2017-11-26T06:17:11.770Z,4.10
2017-11-26T06:19:39.175Z,4.25
2017-11-26T06:22:06.559Z,3.47
2017-11-26T06:24:34.003Z,3.77
2017-11-26T06:27:01.362Z,4.00
2017-11-26T06:29:28.770Z,4.93
2017-11-26T06:31:56.184Z,4.37
2017-11-26T06:34:23.606Z,3.87
2017-11-26T06:36:50.987Z,4.20
2017-11-26T06:39:18.391Z,4.20
2017-11-26T06:41:45.791Z,4.17
2017-11-26T06:44:13.235Z,4.17
2017-11-26T06:46:40.611Z,3.67
2017-11-26T06:49:08.033Z,4.80
2017-11-26T06:51:35.407Z,3.90
2017-11-26T06:54:02.806Z,4.47
2017-11-26T06:56:30.250Z,5.45
2017-11-26T06:58:57.638Z,4.43
2017-11-26T07:01:25.040Z,4.05
2017-11-26T07:03:52.417Z,4.00
2017-11-26T07:06:19.859Z,4.90
2017-11-26T07:08:47.250Z,4.50
2017-11-26T07:11:14.656Z,4.30
2017-11-26T07:13:42.058Z,4.23
2017-11-26T07:16:09.464Z,4.17
2017-11-26T07:18:36.886Z,4.17
2017-11-26T07:21:04.277Z,4.17
2017-11-26T07:23:31.689Z,4.27
2017-11-26T07:25:59.829Z,4.47
2017-11-26T07:28:27.251Z,4.20
2017-11-26T07:30:54.643Z,4.60
2017-11-26T07:33:22.059Z,4.10
2017-11-26T07:35:49.753Z,4.57
2017-11-26T07:38:17.162Z,4.87
2017-11-26T07:40:44.546Z,4.30
2017-11-26T07:43:11.952Z,4.53
2017-11-26T07:45:39.357Z,4.70
2017-11-26T07:48:06.797Z,4.17
2017-11-26T07:50:34.191Z,3.80
2017-11-26T07:53:01.622Z,4.43
2017-11-26T07:55:29.011Z,4.23
2017-11-26T07:57:56.491Z,4.10
2017-11-26T08:00:23.898Z,4.20
2017-11-26T08:02:51.280Z,5.20
2017-11-26T08:05:18.753Z,4.27
2017-11-26T08:07:46.158Z,4.30
2017-11-26T08:10:13.554Z,3.85
2017-11-26T08:12:40.968Z,4.73
2017-11-26T08:15:08.389Z,4.63
2017-11-26T08:17:35.816Z,3.83
2017-11-26T08:20:03.255Z,4.47
2017-11-26T08:22:30.654Z,4.87
2017-11-26T08:24:58.075Z,4.13
2017-11-26T08:27:25.466Z,5.50
2017-11-26T08:29:52.908Z,3.93
2017-11-26T08:32:20.371Z,4.67
2017-11-26T08:34:47.774Z,4.17
2017-11-26T08:37:15.172Z,4.50
2017-11-26T08:39:42.623Z,3.78
2017-11-26T08:42:10.083Z,4.13
2017-11-26T08:44:37.479Z,4.50
2017-11-26T08:47:04.922Z,4.27
2017-11-26T08:49:32.369Z,3.47
2017-11-26T08:51:59.766Z,4.20
2017-11-26T08:54:27.794Z,4.50
2017-11-26T08:56:55.232Z,4.00
2017-11-26T08:59:22.639Z,4.13
2017-11-26T09:01:50.029Z,4.03
2017-11-26T09:04:17.438Z,4.27
2017-11-26T09:06:47.752Z,4.40
2017-11-26T09:09:15.214Z,3.63
2017-11-26T09:11:42.607Z,3.90
2017-11-26T09:14:10.014Z,3.83
2017-11-26T09:16:37.416Z,4.17
2017-11-26T09:19:04.842Z,4.20
2017-11-26T09:21:32.218Z,3.70
2017-11-26T09:23:59.668Z,4.07
2017-11-26T09:26:28.037Z,3.60
2017-11-26T09:28:55.480Z,4.30
2017-11-26T09:31:22.898Z,4.20
2017-11-26T09:33:50.311Z,3.70
2017-11-26T09:36:17.812Z,4.17
2017-11-26T09:38:45.235Z,4.33
2017-11-26T09:41:12.727Z,4.47
2017-11-26T09:43:40.165Z,3.90
2017-11-26T09:46:07.561Z,4.37
2017-11-26T09:48:34.962Z,4.17
2017-11-26T09:51:02.371Z,3.63
2017-11-26T09:53:29.772Z,4.80
2017-11-26T09:55:57.218Z,4.27
2017-11-26T09:58:24.619Z,4.60
2017-11-26T10:00:52.126Z,4.20
2017-11-26T10:03:19.533Z,4.43
2017-11-26T10:05:46.947Z,4.03
2017-11-26T10:08:14.343Z,3.62
2017-11-26T10:10:41.746Z,3.80
2017-11-26T10:13:09.133Z,3.60
2017-11-26T10:15:36.522Z,3.67
2017-11-26T10:18:03.935Z,3.50
2017-11-26T10:20:31.331Z,2.83
2017-11-26T10:22:58.769Z,3.70
2017-11-26T10:25:26.185Z,3.57
2017-11-26T10:27:53.624Z,3.60
2017-11-26T10:30:21.055Z,3.63
2017-11-26T10:32:48.471Z,3.67
2017-11-26T10:35:15.925Z,3.87
2017-11-26T10:37:43.330Z,4.53
2017-11-26T10:40:10.715Z,3.40
2017-11-26T10:42:38.265Z,3.50
2017-11-26T10:45:05.694Z,4.00
2017-11-26T10:47:33.122Z,3.20
2017-11-26T10:50:00.543Z,3.50
2017-11-26T10:52:27.989Z,3.87
2017-11-26T10:54:55.683Z,4.12
2017-11-26T10:57:23.073Z,3.57
2017-11-26T10:59:50.515Z,3.47
2017-11-26T11:02:17.963Z,3.33
2017-11-26T11:04:45.599Z,3.50
2017-11-26T11:07:13.059Z,3.17
2017-11-26T11:09:40.442Z,3.22
2017-11-26T11:12:07.903Z,3.70
2017-11-26T11:14:35.445Z,3.83
2017-11-26T11:17:02.903Z,4.00
2017-11-26T11:19:30.281Z,3.60
2017-11-26T11:21:57.803Z,4.10
2017-11-26T11:24:25.192Z,3.37
2017-11-26T11:26:52.605Z,3.20
2017-11-26T11:29:20.170Z,3.20
2017-11-26T11:31:47.723Z,4.32
2017-11-26T11:34:15.142Z,3.30
2017-11-26T11:36:42.557Z,3.70
2017-11-26T11:39:09.961Z,3.80
2017-11-26T11:41:37.390Z,3.63
2017-11-26T11:44:04.827Z,2.90
2017-11-26T11:46:32.383Z,3.43
2017-11-26T11:48:59.825Z,3.30
2017-11-26T11:51:27.391Z,2.97
2017-11-26T11:53:54.881Z,3.17
2017-11-26T11:56:22.272Z,3.10
2017-11-26T11:58:49.702Z,2.97
2017-11-26T12:01:17.148Z,3.50
2017-11-26T12:03:44.558Z,2.90
2017-11-26T12:06:11.983Z,2.93
2017-11-26T12:08:39.361Z,3.00
2017-11-26T12:11:06.807Z,2.83
2017-11-26T12:13:34.332Z,3.07
2017-11-26T12:16:01.729Z,2.13
2017-11-26T12:18:29.151Z,2.37
2017-11-26T12:20:56.779Z,3.00
2017-11-26T12:23:24.383Z,3.40
2017-11-26T12:25:51.802Z,2.37
2017-11-26T12:28:19.763Z,2.30
2017-11-26T12:30:47.168Z,2.83
2017-11-26T12:33:14.752Z,2.33
2017-11-26T12:35:42.317Z,2.70
2017-11-26T12:38:09.755Z,2.30
2017-11-26T12:40:37.336Z,2.43
2017-11-26T12:43:04.854Z,2.30
2017-11-26T12:45:32.328Z,2.83
2017-11-26T12:47:59.722Z,2.87
2017-11-26T12:50:27.242Z,3.00
2017-11-26T12:52:54.632Z,2.07
2017-11-26T12:55:22.137Z,2.40
2017-11-26T12:57:49.563Z,2.80
2017-11-26T13:00:16.982Z,2.93
2017-11-26T13:02:44.516Z,2.70
2017-11-26T13:05:11.943Z,2.90
2017-11-26T13:07:39.391Z,2.33
2017-11-26T13:10:06.802Z,2.00
2017-11-26T13:12:34.182Z,2.55
2017-11-26T13:15:01.606Z,2.37
2017-11-26T13:17:29.000Z,2.60
2017-11-26T13:19:56.440Z,2.97
2017-11-26T13:22:23.864Z,2.70
2017-11-26T13:24:51.284Z,3.00
2017-11-26T13:27:18.685Z,2.80
2017-11-26T13:29:46.078Z,3.30
2017-11-26T13:32:13.512Z,2.50
2017-11-26T13:34:40.970Z,3.40
2017-11-26T13:37:08.388Z,3.45
2017-11-26T13:39:35.989Z,3.00
2017-11-26T13:42:03.431Z,3.05
2017-11-26T13:44:30.815Z,3.10
2017-11-26T13:46:58.254Z,3.00
2017-11-26T13:49:25.655Z,3.10
2017-11-26T13:51:53.115Z,3.40
2017-11-26T13:54:20.533Z,2.80
2017-11-26T13:56:47.989Z,3.30
2017-11-26T13:59:15.437Z,3.00
2017-11-26T14:01:42.924Z,2.87
2017-11-26T14:04:11.619Z,3.80
2017-11-26T14:06:46.459Z,3.10
2017-11-26T14:09:15.770Z,3.10
2017-11-26T14:11:44.188Z,3.43
2017-11-26T14:14:13.514Z,3.05
2017-11-26T14:16:41.007Z,2.77
2017-11-26T14:19:08.409Z,2.97
2017-11-26T14:21:35.974Z,2.80
2017-11-26T14:24:03.575Z,3.17
2017-11-26T14:26:30.962Z,3.03
2017-11-26T14:28:58.612Z,2.80
2017-11-26T14:31:26.047Z,3.57
2017-11-26T14:33:54.456Z,3.77
2017-11-26T14:36:21.915Z,3.03
2017-11-26T14:38:49.311Z,3.47
2017-11-26T14:41:16.959Z,3.33
2017-11-26T14:43:44.390Z,3.40
2017-11-26T14:46:11.820Z,2.60
2017-11-26T14:48:39.223Z,2.87
2017-11-26T14:51:06.639Z,2.30
2017-11-26T14:53:34.045Z,2.20
2017-11-26T14:56:01.534Z,2.50
2017-11-26T14:58:29.053Z,2.63
2017-11-26T15:00:56.459Z,2.70
2017-11-26T15:03:23.898Z,2.70
2017-11-26T15:05:51.382Z,1.90
2017-11-26T15:08:18.762Z,2.78
2017-11-26T15:10:46.254Z,2.67
2017-11-26T15:13:13.682Z,2.70
2017-11-26T15:15:41.135Z,2.73
2017-11-26T15:18:08.552Z,2.50
2017-11-26T15:20:35.976Z,2.78
2017-11-26T15:23:03.421Z,3.10
2017-11-26T15:25:30.812Z,3.53
2017-11-26T15:27:59.015Z,3.37
2017-11-26T15:30:26.435Z,2.30
2017-11-26T15:32:53.834Z,2.90
2017-11-26T15:35:21.245Z,2.67
2017-11-26T15:37:48.797Z,2.40
2017-11-26T15:40:16.225Z,2.93
2017-11-26T15:42:43.732Z,2.60
2017-11-26T15:45:11.172Z,2.70
2017-11-26T15:47:38.599Z,2.40
2017-11-26T15:50:06.156Z,2.35
2017-11-26T15:52:33.590Z,2.80
2017-11-26T15:55:00.994Z,2.60
2017-11-26T15:57:28.405Z,2.23
2017-11-26T15:59:55.818Z,2.77
2017-11-26T16:02:23.305Z,2.77
2017-11-26T16:04:50.684Z,3.27
2017-11-26T16:07:18.154Z,2.50
2017-11-26T16:09:45.584Z,2.43
2017-11-26T16:12:12.963Z,2.53
2017-11-26T16:14:40.411Z,3.10
2017-11-26T16:17:07.884Z,3.00
2017-11-26T16:19:35.387Z,3.00
2017-11-26T16:22:03.802Z,2.60
2017-11-26T16:24:31.192Z,2.20
2017-11-26T16:26:59.192Z,2.40
2017-11-26T16:29:26.636Z,3.07
2017-11-26T16:31:54.036Z,2.73
2017-11-26T16:34:21.535Z,2.57
2017-11-26T16:36:49.010Z,2.80
2017-11-26T16:39:16.469Z,3.10
2017-11-26T16:41:43.881Z,2.80
2017-11-26T16:44:11.286Z,2.80
2017-11-26T16:46:38.829Z,3.03
2017-11-26T16:49:06.261Z,2.80
2017-11-26T16:51:33.678Z,2.87
2017-11-26T16:54:01.180Z,2.67
2017-11-26T16:56:28.594Z,2.80
2017-11-26T16:58:55.980Z,3.10
2017-11-26T17:01:23.472Z,3.00
2017-11-26T17:03:50.906Z,2.80
2017-11-26T17:06:18.425Z,3.00
2017-11-26T17:08:45.860Z,2.67
2017-11-26T17:11:13.324Z,2.83
2017-11-26T17:13:40.777Z,2.97
2017-11-26T17:16:08.172Z,2.67
2017-11-26T17:18:36.066Z,2.70
2017-11-26T17:21:03.571Z,5.10
2017-11-26T17:23:31.054Z,3.83
2017-11-26T17:25:58.523Z,3.47
2017-11-26T17:28:26.030Z,3.13
2017-11-26T17:30:53.571Z,3.03
2017-11-26T17:33:21.080Z,3.37
2017-11-26T17:35:48.555Z,4.13
2017-11-26T17:38:15.971Z,3.17
2017-11-26T17:40:43.491Z,3.60
2017-11-26T17:43:10.922Z,3.60
2017-11-26T17:45:38.409Z,3.00
2017-11-26T17:48:10.395Z,3.53
2017-11-26T17:50:37.823Z,4.50
2017-11-26T17:53:05.324Z,3.50
2017-11-26T17:55:32.744Z,3.33
2017-11-26T17:58:00.390Z,3.00
2017-11-26T18:00:28.016Z,3.10
2017-11-26T18:02:55.484Z,3.83
2017-11-26T18:05:22.983Z,3.40
2017-11-26T18:07:50.396Z,3.03
2017-11-26T18:10:17.879Z,3.85
2017-11-26T18:12:45.333Z,3.30
2017-11-26T18:15:12.819Z,4.10
2017-11-26T18:17:40.209Z,4.80
2017-11-26T18:20:09.717Z,3.50
2017-11-26T18:22:37.220Z,4.97
2017-11-26T18:25:04.696Z,4.17
2017-11-26T18:27:32.210Z,4.47
2017-11-26T18:29:59.687Z,4.23
2017-11-26T18:32:27.254Z,4.73
2017-11-26T18:34:54.688Z,4.00
2017-11-26T18:37:22.200Z,4.40
2017-11-26T18:39:49.626Z,3.97
2017-11-26T18:42:17.098Z,3.50
2017-11-26T18:44:44.568Z,4.93
2017-11-26T18:47:12.089Z,4.35
2017-11-26T18:49:39.526Z,5.50
2017-11-26T18:52:07.031Z,4.20
2017-11-26T18:54:34.438Z,4.57
2017-11-26T18:57:01.862Z,4.60
2017-11-26T18:59:29.372Z,4.20
2017-11-26T19:01:56.888Z,4.13
2017-11-26T19:04:24.318Z,4.13
2017-11-26T19:06:51.810Z,4.90
2017-11-26T19:09:19.302Z,3.93
2017-11-26T19:11:46.723Z,4.80
2017-11-26T19:14:21.970Z,4.40
2017-11-26T19:16:49.828Z,4.37
2017-11-26T19:19:18.039Z,4.40
2017-11-26T19:21:45.564Z,4.50
2017-11-26T19:24:13.085Z,4.87
2017-11-26T19:26:40.964Z,5.07
2017-11-26T19:29:08.683Z,4.83
2017-11-26T19:31:36.837Z,4.80
2017-11-26T19:34:04.632Z,4.97
2017-11-26T19:36:32.131Z,4.20
2017-11-26T19:39:00.805Z,4.70
2017-11-26T19:41:28.265Z,4.45
2017-11-26T19:43:56.027Z,4.47
2017-11-26T19:46:23.483Z,4.30
2017-11-26T19:48:50.948Z,4.70
2017-11-26T19:51:19.011Z,5.20
2017-11-26T19:53:47.760Z,5.00
2017-11-26T19:56:16.629Z,4.13
2017-11-26T19:58:54.805Z,3.90
2017-11-26T20:01:22.671Z,4.33
2017-11-26T20:03:50.319Z,4.50
2017-11-26T20:06:18.316Z,4.07
2017-11-26T20:08:45.741Z,4.13
2017-11-26T20:11:13.291Z,4.23
2017-11-26T20:13:41.087Z,4.13
2017-11-26T20:16:08.618Z,4.25
2017-11-26T20:18:36.142Z,4.73
2017-11-26T20:21:03.923Z,3.90
2017-11-26T20:23:31.612Z,3.60
2017-11-26T20:25:59.877Z,3.60
2017-11-26T20:28:27.995Z,4.10
2017-11-26T20:30:55.668Z,3.60
2017-11-26T20:33:23.807Z,3.80
2017-11-26T20:35:51.640Z,3.83
2017-11-26T20:38:19.232Z,4.10
2017-11-26T20:40:48.463Z,3.80
2017-11-26T20:43:19.160Z,3.77
2017-11-26T20:45:47.811Z,4.10
2017-11-26T20:48:16.037Z,3.53
2017-11-26T20:50:43.597Z,3.70
2017-11-26T20:53:11.909Z,3.93
2017-11-26T20:55:39.531Z,3.27
2017-11-26T20:58:08.666Z,3.73
2017-11-26T21:00:36.323Z,3.80
2017-11-26T21:03:05.501Z,3.90
2017-11-26T21:05:32.969Z,3.53
2017-11-26T21:08:00.755Z,4.30
2017-11-26T21:10:29.403Z,3.77
2017-11-26T21:12:56.895Z,3.17
2017-11-26T21:15:24.337Z,2.97
2017-11-26T21:17:51.836Z,3.00
2017-11-26T21:20:19.275Z,3.53
2017-11-26T21:22:46.692Z,3.30
2017-11-26T21:25:14.164Z,3.57
2017-11-26T21:27:41.569Z,3.40
2017-11-26T21:30:09.175Z,3.60
2017-11-26T21:32:36.608Z,3.43
2017-11-26T21:35:04.066Z,3.60
2017-11-26T21:37:31.584Z,3.63
2017-11-26T21:39:59.052Z,3.60
2017-11-26T21:42:26.458Z,3.30
2017-11-26T21:44:53.972Z,3.25
2017-11-26T21:47:21.575Z,3.73
2017-11-26T21:49:49.084Z,3.63
2017-11-26T21:52:16.605Z,3.83
2017-11-26T21:54:44.038Z,3.80
2017-11-26T21:57:11.515Z,3.00
2017-11-26T21:59:38.958Z,3.60
2017-11-26T22:02:06.389Z,3.50
2017-11-26T22:04:33.806Z,4.53
2017-11-26T22:07:01.213Z,3.77
2017-11-26T22:09:28.766Z,3.93
2017-11-26T22:11:56.147Z,3.50
2017-11-26T22:14:23.580Z,3.60
2017-11-26T22:16:50.971Z,3.77
2017-11-26T22:19:18.362Z,4.17
2017-11-26T22:21:45.791Z,3.83
2017-11-26T22:24:13.237Z,4.15
2017-11-26T22:26:40.724Z,4.40
2017-11-26T22:29:08.119Z,4.30
2017-11-26T22:31:35.528Z,4.50
2017-11-26T22:34:02.960Z,3.90
2017-11-26T22:36:30.360Z,4.30
2017-11-26T22:38:57.761Z,4.70
2017-11-26T22:41:25.159Z,4.50
2017-11-26T22:43:52.581Z,5.37
2017-11-26T22:46:20.010Z,5.20
2017-11-26T22:48:47.418Z,5.00
2017-11-26T22:51:14.839Z,4.50
2017-11-26T22:53:42.280Z,4.97
2017-11-26T22:56:09.684Z,4.60
2017-11-26T22:58:37.103Z,4.40
2017-11-26T23:01:04.565Z,4.57
2017-11-26T23:03:31.996Z,4.83
2017-11-26T23:05:59.416Z,5.13
2017-11-26T23:08:26.826Z,5.10
2017-11-26T23:10:54.259Z,4.80
2017-11-26T23:13:21.649Z,5.17
2017-11-26T23:15:49.056Z,4.10
2017-11-26T23:18:16.477Z,4.20
2017-11-26T23:20:43.961Z,4.60
2017-11-26T23:23:11.382Z,4.80
2017-11-26T23:25:38.779Z,4.23
2017-11-26T23:28:06.244Z,4.43
2017-11-26T23:30:33.645Z,5.27
2017-11-26T23:33:01.774Z,4.72
2017-11-26T23:35:29.206Z,4.47
2017-11-26T23:37:56.593Z,5.20
2017-11-26T23:40:24.034Z,5.30
2017-11-26T23:42:52.473Z,4.60
2017-11-26T23:45:19.892Z,4.85
2017-11-26T23:47:47.285Z,4.40
2017-11-26T23:50:14.706Z,4.37
2017-11-26T23:52:42.144Z,5.03
2017-11-26T23:55:09.554Z,5.33
2017-11-26T23:57:36.971Z,5.20
